Time;durP1;ratioP1;P1;durP2;ratioP2;P2;SDS_P1;SDS_P2;PMS_P1;PMS_P2;Temp;Humidity;BMP_temperature;BMP_pressure;BME280_temperature;BME280_humidity;BME280_pressure;Samples;Min_cycle;Max_cycle;Signal;HPM_P1;HPM_P2
2022/08/01 00:01:52;;;;;;;1.60;1.20;;;23.10;59.40;23.30;100355.00;;;;4952492;28;92796;-63
2022/08/01 00:04:18;;;;;;;3.20;1.40;;;23.10;59.60;23.20;100344.00;;;;4951180;28;108384;-63
2022/08/01 00:06:44;;;;;;;1.13;1.02;;;23.10;59.90;23.20;100343.00;;;;4950409;28;121579;-63
2022/08/01 00:09:09;;;;;;;2.58;1.48;;;23.00;60.10;23.10;100341.00;;;;4950767;28;123139;-62
2022/08/01 00:11:35;;;;;;;1.88;1.33;;;22.90;60.30;23.00;100341.00;;;;4933639;28;110467;-63
2022/08/01 00:14:01;;;;;;;2.35;2.13;;;22.80;60.50;22.90;100340.00;;;;4954116;28;109814;-63
2022/08/01 00:16:27;;;;;;;3.45;1.95;;;22.80;60.80;22.90;100338.00;;;;4954148;28;123649;-62
2022/08/01 00:18:52;;;;;;;3.50;1.23;;;22.70;61.20;22.80;100337.00;;;;4954780;28;92958;-63
2022/08/01 00:21:18;;;;;;;2.15;1.20;;;22.60;61.40;22.70;100343.00;;;;4954934;28;94359;-63
2022/08/01 00:23:47;;;;;;;2.55;1.50;;;22.50;61.80;22.60;100333.00;;;;4955211;28;93164;-62
2022/08/01 00:26:13;;;;;;;2.97;1.58;;;22.50;62.10;22.50;100332.00;;;;4955084;28;93346;-62
2022/08/01 00:28:40;;;;;;;1.52;1.00;;;22.40;62.50;22.50;100334.00;;;;4954823;28;94136;-63
2022/08/01 00:31:06;;;;;;;1.42;1.33;;;22.30;63.00;22.40;100335.00;;;;4955488;28;92952;-62
2022/08/01 00:33:31;;;;;;;2.60;1.77;;;22.20;63.30;22.30;100325.00;;;;4954660;28;92798;-63
2022/08/01 00:35:57;;;;;;;1.23;1.15;;;22.20;63.80;22.30;100322.00;;;;4953011;28;114569;-62
2022/08/01 00:38:23;;;;;;;4.70;1.20;;;22.10;64.00;22.20;100325.00;;;;4954038;28;123849;-63
2022/08/01 00:40:48;;;;;;;2.25;1.63;;;22.00;64.20;22.20;100335.00;;;;4953708;28;109437;-63
2022/08/01 00:43:15;;;;;;;2.65;1.27;;;22.00;64.40;22.10;100331.00;;;;4954689;28;109324;-63
2022/08/01 00:45:41;;;;;;;1.20;1.10;;;21.90;64.60;22.00;100326.00;;;;4953252;28;120168;-63
2022/08/01 00:48:06;;;;;;;1.38;1.17;;;21.90;64.90;22.00;100334.00;;;;4954042;28;106043;-63
2022/08/01 00:50:32;;;;;;;1.67;1.00;;;21.80;65.20;21.90;100332.00;;;;4936157;28;92814;-62
2022/08/01 00:52:59;;;;;;;0.57;0.57;;;21.70;65.20;21.80;100324.00;;;;4936849;28;92227;-62
2022/08/01 00:55:27;;;;;;;1.23;0.90;;;21.70;65.60;21.70;100325.00;;;;4953858;28;95895;-62
2022/08/01 00:57:53;;;;;;;2.20;1.00;;;21.60;66.00;21.70;100323.00;;;;4953149;28;115347;-63
2022/08/01 01:00:19;;;;;;;0.90;0.90;;;21.50;66.30;21.60;100324.00;;;;4934985;28;109550;-62
2022/08/01 01:02:44;;;;;;;1.75;1.25;;;21.50;66.50;21.50;100325.00;;;;4951663;28;109491;-62
2022/08/01 01:05:10;;;;;;;2.00;1.27;;;21.40;66.80;21.50;100322.00;;;;4953408;28;122168;-63
2022/08/01 01:07:48;;;;;;;1.33;1.15;;;21.30;67.20;21.40;100316.00;;;;4954373;28;93186;-63
2022/08/01 01:10:36;;;;;;;2.67;2.25;;;21.30;67.80;21.30;100324.00;;;;4936144;28;96007;-62
2022/08/01 01:13:13;;;;;;;3.70;1.70;;;21.20;68.80;21.30;100319.00;;;;4936444;28;92999;-63
2022/08/01 01:16:02;;;;;;;2.25;1.13;;;21.10;68.50;21.20;100317.00;;;;4936071;28;93900;-63
2022/08/01 01:18:49;;;;;;;3.10;1.42;;;21.10;69.10;21.20;100320.00;;;;4953957;28;105879;-63
2022/08/01 01:21:18;;;;;;;3.88;1.20;;;21.00;69.40;21.10;100312.00;;;;4936259;28;93345;-63
2022/08/01 01:24:18;;;;;;;1.48;1.05;;;21.00;69.90;21.10;100318.00;;;;4953157;28;92974;-62
2022/08/01 01:26:54;;;;;;;1.67;1.45;;;21.00;70.40;21.00;100325.00;;;;4952971;28;94560;-62
2022/08/01 01:29:40;;;;;;;2.13;1.45;;;20.90;70.90;21.00;100315.00;;;;4935283;28;107648;-62
2022/08/01 01:32:17;;;;;;;1.52;1.40;;;20.90;71.20;21.00;100318.00;;;;4935852;28;92951;-62
2022/08/01 01:34:46;;;;;;;1.08;0.88;;;20.90;71.60;21.00;100318.00;;;;4935872;28;92851;-61
2022/08/01 01:37:18;;;;;;;2.00;1.05;;;20.80;71.80;21.00;100314.00;;;;4934104;28;115081;-62
2022/08/01 01:39:46;;;;;;;1.85;1.13;;;20.80;72.30;21.00;100315.00;;;;4935871;28;92924;-61
2022/08/01 01:42:13;;;;;;;0.80;0.63;;;20.80;72.50;21.00;100314.00;;;;4935584;28;92790;-62
2022/08/01 01:44:40;;;;;;;1.60;1.23;;;20.80;72.90;21.10;100305.00;;;;4935078;28;108296;-62
2022/08/01 01:47:06;;;;;;;2.35;1.08;;;20.90;73.20;21.10;100311.00;;;;4934625;28;122283;-62
2022/08/01 01:49:33;;;;;;;0.85;0.85;;;20.90;73.50;21.10;100310.00;;;;4952547;28;120838;-62
2022/08/01 01:52:02;;;;;;;1.80;1.30;;;20.90;73.90;21.20;100310.00;;;;4951881;28;109884;-62
2022/08/01 01:54:39;;;;;;;1.00;0.90;;;21.00;74.30;21.20;100312.00;;;;4935844;28;93682;-62
2022/08/01 01:57:06;;;;;;;0.88;0.68;;;21.00;74.60;21.20;100305.00;;;;4953294;28;105038;-62
2022/08/01 01:59:36;;;;;;;2.67;1.20;;;21.00;75.00;21.20;100306.00;;;;4934710;28;93857;-62
2022/08/01 02:02:04;;;;;;;1.02;0.93;;;20.90;75.10;21.20;100316.00;;;;4935079;28;92961;-62
2022/08/01 02:04:32;;;;;;;1.27;0.95;;;21.00;75.60;21.20;100309.00;;;;4935647;28;92874;-62
2022/08/01 02:07:00;;;;;;;2.60;1.38;;;21.00;76.00;21.20;100315.00;;;;4934594;28;93927;-62
2022/08/01 02:09:28;;;;;;;1.15;1.00;;;21.00;76.10;21.20;100304.00;;;;4935506;28;95990;-62
2022/08/01 02:11:56;;;;;;;1.02;1.02;;;21.10;76.50;21.20;100322.00;;;;4953698;28;92610;-61
2022/08/01 02:14:23;;;;;;;0.70;0.70;;;20.80;76.60;21.20;100323.00;;;;4953018;28;104684;-63
2022/08/01 02:16:50;;;;;;;2.20;0.90;;;21.00;76.80;21.20;100325.00;;;;4933765;28;104926;-63
2022/08/01 02:19:19;;;;;;;0.90;0.90;;;21.00;77.00;21.20;100320.00;;;;4953357;28;93722;-62
2022/08/01 02:21:54;;;;;;;1.20;1.10;;;21.00;77.20;21.20;100330.00;;;;4935111;28;92971;-62
2022/08/01 02:24:45;;;;;;;2.15;1.67;;;21.00;77.30;21.20;100330.00;;;;4953424;28;92641;-62
2022/08/01 02:27:16;;;;;;;4.93;2.38;;;21.00;77.50;21.20;100330.00;;;;4952920;28;94233;-62
2022/08/01 02:29:53;;;;;;;3.65;2.45;;;21.00;77.60;21.20;100326.00;;;;4933947;28;99557;-62
2022/08/01 02:32:29;;;;;;;1.77;1.05;;;21.10;77.80;21.30;100321.00;;;;4952397;28;100252;-63
2022/08/01 02:35:00;;;;;;;1.33;1.23;;;21.00;78.10;21.30;100323.00;;;;4953427;28;99993;-62
2022/08/01 02:37:31;;;;;;;1.35;1.17;;;21.10;78.40;21.30;100324.00;;;;4952356;28;112244;-62
2022/08/01 02:39:57;;;;;;;1.35;0.70;;;21.00;78.60;21.20;100323.00;;;;4934334;28;112755;-62
2022/08/01 02:42:27;;;;;;;2.17;1.00;;;21.10;79.00;21.20;100320.00;;;;4933582;28;110527;-63
2022/08/01 02:44:54;;;;;;;1.67;1.20;;;21.00;79.60;21.20;100323.00;;;;4935034;28;92894;-62
2022/08/01 02:47:22;;;;;;;0.90;0.80;;;21.00;79.70;21.20;100315.00;;;;4934149;28;103624;-62
2022/08/01 02:49:52;;;;;;;2.95;1.55;;;21.00;80.20;21.20;100321.00;;;;4933420;28;114083;-63
2022/08/01 02:52:20;;;;;;;1.10;1.05;;;21.00;80.30;21.20;100323.00;;;;4934607;28;92742;-62
2022/08/01 02:54:48;;;;;;;1.40;0.93;;;21.00;80.70;21.10;100317.00;;;;4934526;28;92910;-62
2022/08/01 02:57:16;;;;;;;1.08;0.80;;;20.90;80.90;21.10;100318.00;;;;4934002;28;96428;-62
2022/08/01 02:59:44;;;;;;;1.95;1.45;;;20.90;81.20;21.10;100324.00;;;;4934403;28;96902;-62
2022/08/01 03:02:10;;;;;;;1.38;0.90;;;21.10;81.40;21.10;100326.00;;;;4952595;28;93104;-62
2022/08/01 03:04:39;;;;;;;3.00;1.02;;;20.90;81.60;21.10;100319.00;;;;4934717;28;92773;-62
2022/08/01 03:07:07;;;;;;;1.05;0.80;;;20.90;81.80;21.10;100325.00;;;;4933665;28;94938;-62
2022/08/01 03:09:37;;;;;;;2.60;1.40;;;20.90;82.00;21.10;100322.00;;;;4952630;28;94359;-63
2022/08/01 03:12:15;;;;;;;0.93;0.55;;;20.90;82.30;21.10;100326.00;;;;4934038;28;101340;-62
2022/08/01 03:14:44;;;;;;;4.75;1.98;;;20.90;82.50;21.00;100323.00;;;;4934439;28;92890;-63
2022/08/01 03:17:11;;;;;;;2.75;2.20;;;20.90;82.70;21.00;100334.00;;;;4933316;28;93536;-62
2022/08/01 03:19:38;;;;;;;18.75;6.85;;;20.90;82.90;21.00;100338.00;;;;4933574;28;93616;-63
2022/08/01 03:22:08;;;;;;;10.35;5.95;;;20.80;83.20;21.00;100335.00;;;;4934644;28;93105;-62
2022/08/01 03:24:38;;;;;;;3.33;2.33;;;20.80;83.40;21.00;100333.00;;;;4934570;28;92068;-63
2022/08/01 03:27:05;;;;;;;5.53;1.98;;;20.80;83.70;21.00;100333.00;;;;4933109;28;111292;-63
2022/08/01 03:29:33;;;;;;;1.13;1.02;;;20.80;84.00;20.90;100338.00;;;;4951449;28;98367;-63
2022/08/01 03:32:00;;;;;;;1.10;1.00;;;20.80;84.30;20.90;100336.00;;;;4933950;28;93760;-63
2022/08/01 03:34:27;;;;;;;0.88;0.88;;;20.80;84.70;20.90;100337.00;;;;4934526;28;92867;-63
2022/08/01 03:37:02;;;;;;;2.10;1.17;;;20.70;84.90;20.90;100339.00;;;;4952139;28;93322;-63
2022/08/01 03:39:37;;;;;;;1.75;1.50;;;20.70;85.10;20.90;100330.00;;;;4940253;28;113992;-63
2022/08/01 03:42:14;;;;;;;1.08;0.80;;;20.70;85.60;20.90;100340.00;;;;4933372;28;98240;-62
2022/08/01 03:44:41;;;;;;;1.80;1.08;;;20.70;86.10;20.90;100335.00;;;;4933915;28;93005;-62
2022/08/01 03:47:09;;;;;;;2.83;1.35;;;20.70;86.30;20.90;100337.00;;;;4935233;28;104274;-63
2022/08/01 03:49:42;;;;;;;2.00;1.70;;;20.70;86.60;20.90;100338.00;;;;4955333;28;121938;-62
2022/08/01 03:52:09;;;;;;;1.20;1.10;;;20.70;86.90;20.90;100338.00;;;;4937168;28;92706;-63
2022/08/01 03:54:38;;;;;;;1.52;1.20;;;20.70;87.10;20.90;100331.00;;;;4934162;28;92744;-63
2022/08/01 03:57:05;;;;;;;1.65;1.48;;;20.70;87.40;20.90;100338.00;;;;4936792;28;113383;-63
2022/08/01 03:59:32;;;;;;;1.17;0.80;;;20.70;87.50;20.90;100344.00;;;;4954589;28;99071;-63
2022/08/01 04:01:58;;;;;;;1.80;1.33;;;20.70;87.80;20.90;100337.00;;;;4937003;28;92667;-63
2022/08/01 04:04:24;;;;;;;2.35;1.30;;;20.70;88.10;20.90;100338.00;;;;4955174;28;92785;-62
2022/08/01 04:06:53;;;;;;;1.15;1.05;;;20.70;88.80;21.00;100332.00;;;;4954549;28;98220;-62
2022/08/01 04:09:20;;;;;;;0.90;0.77;;;20.80;88.90;21.00;100332.00;;;;4955311;28;92770;-63
2022/08/01 04:11:46;;;;;;;4.95;1.40;;;20.80;89.00;21.00;100337.00;;;;4954513;28;92806;-63
2022/08/01 04:14:12;;;;;;;2.88;1.63;;;20.80;89.10;21.00;100336.00;;;;4955690;28;91883;-62
2022/08/01 04:16:38;;;;;;;2.83;1.67;;;20.80;89.30;21.00;100330.00;;;;4953840;28;109796;-62
2022/08/01 04:19:07;;;;;;;3.45;1.70;;;20.80;89.50;21.00;100335.00;;;;4953586;28;93905;-62
2022/08/01 04:21:34;;;;;;;1.38;1.27;;;20.80;89.90;21.00;100337.00;;;;4954076;28;94093;-63
2022/08/01 04:24:15;;;;;;;2.25;2.05;;;20.80;90.00;21.00;100334.00;;;;4936836;28;92972;-63
2022/08/01 04:26:43;;;;;;;2.88;1.92;;;20.80;90.00;21.00;100333.00;;;;4953490;28;112178;-62
2022/08/01 04:29:10;;;;;;;2.10;1.80;;;20.80;90.20;21.00;100340.00;;;;4935007;28;100215;-62
2022/08/01 04:31:39;;;;;;;3.85;1.80;;;20.90;90.40;21.10;100332.00;;;;4936324;28;92819;-62
2022/08/01 04:34:06;;;;;;;1.52;1.23;;;20.90;90.40;21.10;100335.00;;;;4937643;28;93659;-63
2022/08/01 04:36:36;;;;;;;1.58;1.13;;;20.90;90.50;21.20;100344.00;;;;4953905;28;93860;-63
2022/08/01 04:39:04;;;;;;;1.58;1.20;;;20.90;90.50;21.20;100344.00;;;;4936173;28;93311;-63
2022/08/01 04:41:32;;;;;;;2.25;1.20;;;21.00;90.60;21.20;100352.00;;;;4935459;28;92726;-62
2022/08/01 04:44:02;;;;;;;4.13;2.90;;;21.00;90.50;21.30;100364.00;;;;4952209;28;93074;-63
2022/08/01 04:46:28;;;;;;;1.30;1.20;;;21.00;90.60;21.30;100366.00;;;;4949570;28;94977;-63
2022/08/01 04:48:55;;;;;;;4.78;1.40;;;21.10;90.70;21.30;100365.00;;;;4934630;28;93969;-63
2022/08/01 04:51:22;;;;;;;2.53;1.58;;;21.10;90.70;21.40;100362.00;;;;4942420;28;102414;-63
2022/08/01 04:53:48;;;;;;;3.70;1.40;;;21.20;90.80;21.40;100367.00;;;;4952209;28;92950;-63
2022/08/01 04:56:15;;;;;;;1.98;1.40;;;21.20;90.80;21.40;100362.00;;;;4954609;28;94178;-64
2022/08/01 04:58:42;;;;;;;1.10;1.00;;;21.20;91.00;21.40;100360.00;;;;4952494;28;94191;-64
2022/08/01 05:01:08;;;;;;;1.60;1.50;;;21.20;91.10;21.40;100365.00;;;;4953161;28;92662;-63
2022/08/01 05:03:34;;;;;;;1.85;1.75;;;21.20;91.10;21.40;100357.00;;;;4955055;28;92188;-63
2022/08/01 05:06:00;;;;;;;2.35;1.48;;;21.20;91.20;21.40;100369.00;;;;4953846;28;106520;-63
2022/08/01 05:08:25;;;;;;;5.00;1.92;;;21.20;91.40;21.40;100364.00;;;;4934663;28;121952;-64
2022/08/01 05:10:52;;;;;;;3.20;2.53;;;21.00;91.80;21.30;100369.00;;;;4952217;28;110245;-64
2022/08/01 05:13:18;;;;;;;1.98;1.88;;;21.10;92.10;21.30;100371.00;;;;4954446;28;92868;-62
2022/08/01 05:15:44;;;;;;;7.70;2.85;;;21.10;92.20;21.30;100372.00;;;;4953497;28;101028;-64
2022/08/01 05:18:10;;;;;;;2.55;1.77;;;21.10;92.20;21.30;100371.00;;;;4953037;28;118441;-63
2022/08/01 05:20:36;;;;;;;1.90;1.75;;;21.10;92.30;21.30;100376.00;;;;4953434;28;107599;-64
2022/08/01 05:23:06;;;;;;;2.08;1.55;;;21.10;92.30;21.40;100376.00;;;;4954668;28;92857;-63
2022/08/01 05:25:31;;;;;;;3.22;1.08;;;21.10;92.30;21.40;100378.00;;;;4953376;28;93893;-62
2022/08/01 05:27:57;;;;;;;1.77;1.38;;;21.20;92.30;21.50;100374.00;;;;4954256;28;92891;-62
2022/08/01 05:30:23;;;;;;;1.40;1.23;;;21.20;92.40;21.50;100374.00;;;;4953983;28;92858;-63
2022/08/01 05:32:49;;;;;;;1.85;1.42;;;21.30;92.50;21.60;100372.00;;;;4953369;28;106656;-63
2022/08/01 05:35:14;;;;;;;3.45;1.63;;;21.40;92.50;21.70;100383.00;;;;4951594;28;123549;-63
2022/08/01 05:37:40;;;;;;;1.58;1.48;;;21.40;92.60;21.70;100369.00;;;;4952998;28;119220;-64
2022/08/01 05:40:06;;;;;;;3.03;1.73;;;21.50;92.60;21.80;100379.00;;;;4953188;28;111149;-64
2022/08/01 05:42:32;;;;;;;1.27;1.08;;;21.60;92.70;21.80;100375.00;;;;4954043;28;92806;-63
2022/08/01 05:44:58;;;;;;;4.15;2.33;;;21.60;92.80;21.90;100372.00;;;;4952471;28;123821;-64
2022/08/01 05:47:23;;;;;;;1.77;1.67;;;21.60;92.90;22.00;100382.00;;;;4952717;28;123339;-64
2022/08/01 05:49:50;;;;;;;2.30;1.23;;;21.70;93.00;22.10;100378.00;;;;4953293;28;92698;-63
2022/08/01 05:52:15;;;;;;;2.55;1.35;;;21.80;93.00;22.20;100381.00;;;;4952548;28;109175;-63
2022/08/01 05:54:41;;;;;;;1.50;1.23;;;21.90;93.00;22.20;100372.00;;;;4953092;28;92832;-64
2022/08/01 05:57:07;;;;;;;1.60;1.42;;;21.90;93.30;22.20;100371.00;;;;4952156;28;122325;-63
2022/08/01 05:59:33;;;;;;;4.00;1.92;;;22.00;93.10;22.30;100371.00;;;;4952590;28;110579;-63
2022/08/01 06:01:59;;;;;;;3.65;2.45;;;22.00;93.10;22.40;100380.00;;;;4952364;28;107761;-64
2022/08/01 06:04:25;;;;;;;2.72;1.55;;;22.10;93.10;22.50;100377.00;;;;4953476;28;93354;-64
2022/08/01 06:06:50;;;;;;;1.55;1.45;;;22.30;93.20;22.60;100368.00;;;;4951749;28;122601;-64
2022/08/01 06:09:16;;;;;;;2.20;2.00;;;22.30;93.30;22.60;100374.00;;;;4953288;28;93158;-64
2022/08/01 06:11:42;;;;;;;2.92;1.58;;;22.40;93.40;22.70;100384.00;;;;4953402;28;95837;-63
2022/08/01 06:14:08;;;;;;;0.90;0.90;;;22.40;93.90;22.70;100379.00;;;;4953490;28;92975;-64
2022/08/01 06:16:33;;;;;;;1.45;1.33;;;22.40;93.80;22.70;100387.00;;;;4952864;28;93700;-63
2022/08/01 06:19:00;;;;;;;1.10;1.02;;;22.50;93.60;22.80;100391.00;;;;4952346;28;109447;-63
2022/08/01 06:21:26;;;;;;;0.93;0.88;;;22.50;93.60;22.90;100405.00;;;;4952642;28;98127;-63
2022/08/01 06:23:51;;;;;;;3.30;1.45;;;22.60;93.80;22.90;100399.00;;;;4951396;28;123616;-63
2022/08/01 06:26:18;;;;;;;1.58;1.48;;;22.60;93.90;22.90;100398.00;;;;4952307;28;123612;-64
2022/08/01 06:28:44;;;;;;;1.85;1.38;;;22.70;94.10;22.90;100400.00;;;;4934007;28;92824;-63
2022/08/01 06:31:12;;;;;;;1.05;0.98;;;22.70;94.80;22.80;100405.00;;;;4951795;28;109468;-64
2022/08/01 06:33:37;;;;;;;3.83;1.67;;;22.60;96.30;22.50;100406.00;;;;4952084;28;94057;-64
2022/08/01 06:36:03;;;;;;;1.63;1.38;;;22.40;96.80;22.20;100419.00;;;;4952199;28;122055;-65
2022/08/01 06:38:29;;;;;;;1.42;1.30;;;22.00;97.40;22.10;100415.00;;;;4952924;28;93011;-64
2022/08/01 06:40:55;;;;;;;1.48;1.38;;;22.00;98.20;22.10;100415.00;;;;4952244;28;109261;-64
2022/08/01 06:43:21;;;;;;;1.45;1.35;;;21.90;98.90;22.00;100419.00;;;;4952053;28;122909;-63
2022/08/01 06:45:47;;;;;;;1.70;1.23;;;21.90;99.60;22.00;100416.00;;;;4951706;28;93547;-63
2022/08/01 06:48:12;;;;;;;2.03;1.27;;;21.90;99.90;22.10;100420.00;;;;4951846;28;102785;-63
2022/08/01 06:50:38;;;;;;;1.33;1.17;;;21.90;99.90;22.20;100423.00;;;;4953525;28;92998;-63
2022/08/01 06:53:04;;;;;;;1.85;1.52;;;21.90;99.90;22.30;100422.00;;;;4952737;28;93324;-63
2022/08/01 06:55:30;;;;;;;1.33;1.23;;;22.10;99.90;22.50;100423.00;;;;4951905;28;92965;-63
2022/08/01 06:57:56;;;;;;;1.40;1.23;;;22.20;99.90;22.70;100420.00;;;;4952160;28;110419;-65
2022/08/01 07:00:24;;;;;;;1.42;1.08;;;22.40;99.90;23.00;100417.00;;;;4952317;28;101415;-64
2022/08/01 07:02:56;;;;;;;2.63;1.38;;;22.60;99.90;23.30;100421.00;;;;4952648;28;93193;-64
2022/08/01 07:05:22;;;;;;;10.60;1.08;;;22.90;99.90;23.60;100422.00;;;;4952778;28;92781;-65
2022/08/01 07:07:48;;;;;;;1.27;1.17;;;23.20;99.70;23.80;100413.00;;;;4951685;28;107697;-63
2022/08/01 07:10:14;;;;;;;1.17;1.08;;;23.40;98.70;23.90;100412.00;;;;4951813;28;108586;-65
2022/08/01 07:12:40;;;;;;;1.58;1.48;;;23.60;97.60;23.90;100413.00;;;;4932345;28;110475;-65
2022/08/01 07:15:10;;;;;;;1.85;1.60;;;23.60;97.00;24.00;100420.00;;;;4952747;28;94038;-65
2022/08/01 07:17:39;;;;;;;1.42;1.23;;;23.70;96.80;24.20;100414.00;;;;4952690;28;92965;-64
2022/08/01 07:20:10;;;;;;;1.52;1.17;;;23.90;96.80;24.50;100414.00;;;;4952696;28;93058;-64
2022/08/01 07:22:36;;;;;;;1.27;1.02;;;24.20;96.00;24.70;100419.00;;;;4952941;28;100534;-64
2022/08/01 07:25:04;;;;;;;5.13;1.42;;;24.40;95.00;24.80;100425.00;;;;4955569;28;93038;-64
2022/08/01 07:27:30;;;;;;;1.65;1.20;;;24.50;94.30;24.90;100413.00;;;;4955460;28;92942;-63
2022/08/01 07:29:56;;;;;;;1.23;0.88;;;24.60;93.90;25.10;100419.00;;;;4955736;28;108845;-65
2022/08/01 07:32:21;;;;;;;3.20;1.25;;;24.80;93.50;25.30;100411.00;;;;4954931;28;121796;-65
2022/08/01 07:34:47;;;;;;;1.60;1.38;;;25.00;92.60;25.40;100409.00;;;;4955217;28;92826;-64
2022/08/01 07:37:13;;;;;;;1.50;0.88;;;25.10;92.20;25.60;100421.00;;;;4954207;28;109726;-64
2022/08/01 07:39:38;;;;;;;1.58;0.75;;;25.20;91.80;25.70;100418.00;;;;4954493;28;110500;-64
2022/08/01 07:42:04;;;;;;;2.58;1.20;;;25.40;91.20;25.80;100413.00;;;;4954831;28;112553;-65
2022/08/01 07:44:30;;;;;;;2.75;1.20;;;25.60;90.70;25.80;100410.00;;;;4954369;28;122626;-65
2022/08/01 07:46:55;;;;;;;1.73;0.98;;;25.60;90.30;25.90;100424.00;;;;4954545;28;111172;-64
2022/08/01 07:49:21;;;;;;;2.00;1.02;;;25.70;90.10;25.90;100420.00;;;;4954872;28;108734;-65
2022/08/01 07:51:47;;;;;;;2.05;1.10;;;25.70;89.60;25.90;100427.00;;;;4955219;28;93743;-64
2022/08/01 07:54:13;;;;;;;2.83;1.08;;;25.70;89.00;25.80;100423.00;;;;4956115;28;92804;-63
2022/08/01 07:56:38;;;;;;;0.70;0.70;;;25.60;89.00;25.50;100408.00;;;;4955318;28;92779;-65
2022/08/01 07:59:04;;;;;;;1.17;1.08;;;25.40;89.40;25.30;100425.00;;;;4954260;28;108158;-64
2022/08/01 08:01:30;;;;;;;1.92;1.20;;;25.20;90.10;25.20;100416.00;;;;4953632;28;122741;-64
2022/08/01 08:03:56;;;;;;;6.55;1.23;;;25.10;90.90;25.10;100411.00;;;;4955122;28;93328;-65
2022/08/01 08:06:22;;;;;;;1.05;0.60;;;25.00;91.00;25.20;100409.00;;;;4955053;28;92884;-65
2022/08/01 08:08:47;;;;;;;1.02;0.75;;;25.00;91.20;25.40;100415.00;;;;4954257;28;96492;-64
2022/08/01 08:11:13;;;;;;;1.00;0.85;;;25.10;91.20;25.70;100407.00;;;;4953892;28;122293;-64
2022/08/01 08:13:39;;;;;;;0.73;0.47;;;25.30;90.80;26.00;100422.00;;;;4954196;28;121642;-64
2022/08/01 08:16:04;;;;;;;0.63;0.45;;;25.60;90.30;26.20;100416.00;;;;4955371;28;94192;-65
2022/08/01 08:18:30;;;;;;;1.75;0.82;;;25.50;89.30;26.30;100420.00;;;;4954371;28;109160;-63
2022/08/01 08:20:56;;;;;;;1.48;1.10;;;26.00;88.50;26.20;100424.00;;;;4953655;28;121140;-65
2022/08/01 08:26:05;;;;;;;3.58;1.10;;;25.90;86.80;26.00;100426.00;;;;4951605;28;93758;-64
2022/08/01 08:28:31;;;;;;;0.75;0.68;;;25.80;86.50;25.90;100413.00;;;;4935910;28;112084;-65
2022/08/01 08:30:57;;;;;;;1.13;1.02;;;25.70;86.30;25.90;100427.00;;;;4953229;28;122928;-64
2022/08/01 08:33:23;;;;;;;0.93;0.90;;;25.60;86.50;26.00;100433.00;;;;4955134;28;92887;-65
2022/08/01 08:35:49;;;;;;;1.15;0.88;;;25.70;86.70;26.00;100432.00;;;;4953915;28;111339;-64
2022/08/01 08:38:14;;;;;;;0.88;0.85;;;25.70;85.90;25.90;100434.00;;;;4954987;28;93061;-64
2022/08/01 08:40:40;;;;;;;0.80;0.63;;;25.60;85.90;25.80;100429.00;;;;4953009;28;124277;-65
2022/08/01 08:43:06;;;;;;;1.02;0.88;;;25.60;86.20;25.80;100433.00;;;;4953625;28;122098;-65
2022/08/01 08:45:33;;;;;;;2.00;1.20;;;25.60;86.60;25.80;100439.00;;;;4954075;28;110639;-65
2022/08/01 08:48:00;;;;;;;0.82;0.43;;;25.60;86.60;25.70;100438.00;;;;4953992;28;100275;-65
2022/08/01 08:50:26;;;;;;;0.70;0.70;;;25.50;86.10;25.70;100433.00;;;;4934857;28;124079;-63
2022/08/01 08:52:54;;;;;;;1.30;0.70;;;25.40;86.30;25.60;100436.00;;;;4953800;28;105317;-64
2022/08/01 08:55:21;;;;;;;0.90;0.90;;;25.40;86.60;25.50;100440.00;;;;4935975;28;92886;-64
2022/08/01 08:57:47;;;;;;;1.25;0.80;;;25.30;86.40;25.30;100446.00;;;;4955201;28;92692;-64
2022/08/01 09:00:14;;;;;;;3.42;0.65;;;25.20;86.90;25.20;100446.00;;;;4953726;28;100148;-65
2022/08/01 09:02:46;;;;;;;0.95;0.73;;;25.00;88.00;25.10;100439.00;;;;4954444;28;92979;-64
2022/08/01 09:05:12;;;;;;;1.40;1.05;;;24.90;87.60;25.10;100437.00;;;;4954564;28;93326;-65
2022/08/01 09:07:38;;;;;;;0.70;0.65;;;24.80;88.00;25.20;100445.00;;;;4954805;28;92264;-65
2022/08/01 09:10:05;;;;;;;1.48;0.77;;;24.90;88.20;25.30;100440.00;;;;4954336;28;93787;-64
2022/08/01 09:12:31;;;;;;;0.80;0.47;;;25.00;88.30;25.50;100434.00;;;;4952900;28;105250;-63
2022/08/01 09:14:57;;;;;;;0.40;0.40;;;25.10;88.10;25.50;100444.00;;;;4952767;28;110737;-63
2022/08/01 09:17:23;;;;;;;0.68;0.50;;;25.20;87.70;25.60;100456.00;;;;4953501;28;108810;-64
2022/08/01 09:19:55;;;;;;;0.80;0.60;;;25.30;87.50;25.70;100450.00;;;;4953660;28;113154;-64
2022/08/01 09:22:24;;;;;;;0.80;0.63;;;25.40;87.20;25.80;100437.00;;;;4953813;28;92970;-64
2022/08/01 09:25:07;;;;;;;0.73;0.73;;;25.50;86.60;25.90;100452.00;;;;4948459;28;92956;-64
2022/08/01 09:27:34;;;;;;;0.45;0.43;;;25.50;86.30;26.00;100451.00;;;;4944968;28;98248;-64
2022/08/01 09:30:19;;;;;;;2.35;0.90;;;25.60;85.70;26.00;100450.00;;;;4954088;28;93326;-64
2022/08/01 09:33:01;;;;;;;0.38;0.32;;;25.70;85.10;26.20;100465.00;;;;4953969;28;93016;-63
2022/08/01 09:35:36;;;;;;;1.08;0.50;;;25.80;84.70;26.20;100450.00;;;;4954434;28;92632;-64
2022/08/01 09:38:17;;;;;;;0.47;0.47;;;25.80;83.00;26.40;100461.00;;;;4953961;28;92871;-64
2022/08/01 09:40:49;;;;;;;0.47;0.30;;;26.00;82.20;26.50;100464.00;;;;4953251;28;94716;-64
2022/08/01 09:43:15;;;;;;;0.63;0.20;;;26.10;81.00;26.50;100456.00;;;;4953124;28;94622;-63
2022/08/01 09:45:41;;;;;;;0.57;0.47;;;26.20;80.00;26.50;100461.00;;;;4954361;28;92915;-64
2022/08/01 09:48:09;;;;;;;0.73;0.73;;;26.20;79.70;26.50;100463.00;;;;4936342;28;108727;-63
2022/08/01 09:50:46;;;;;;;0.38;0.38;;;26.20;80.00;26.50;100454.00;;;;4953166;28;93446;-63
2022/08/01 09:53:13;;;;;;;16.67;0.50;;;26.20;80.00;26.50;100461.00;;;;4935585;28;92595;-64
2022/08/01 09:55:40;;;;;;;0.50;0.50;;;26.20;80.00;26.40;100461.00;;;;4954331;28;93052;-64
2022/08/01 09:58:06;;;;;;;1.00;0.75;;;26.20;80.00;26.50;100459.00;;;;4953702;28;91957;-63
2022/08/01 10:00:34;;;;;;;0.70;0.65;;;26.20;80.30;26.60;100462.00;;;;4952871;28;101533;-65
2022/08/01 10:03:22;;;;;;;0.50;0.50;;;26.20;80.30;26.70;100454.00;;;;4934855;28;93240;-64
2022/08/01 10:05:48;;;;;;;0.52;0.43;;;26.40;80.10;26.90;100457.00;;;;4934753;28;93933;-64
2022/08/01 10:08:14;;;;;;;0.80;0.57;;;26.50;79.60;26.90;100469.00;;;;4953785;28;92816;-64
2022/08/01 10:10:41;;;;;;;0.52;0.40;;;26.60;79.00;27.00;100466.00;;;;4952946;28;94233;-64
2022/08/01 10:13:08;;;;;;;0.38;0.38;;;26.60;78.30;26.90;100476.00;;;;4933838;28;110283;-64
2022/08/01 10:15:34;;;;;;;1.08;0.73;;;26.60;78.30;26.80;100483.00;;;;4952927;28;109034;-65
2022/08/01 10:18:08;;;;;;;0.68;0.40;;;26.60;78.40;26.50;100484.00;;;;4933656;28;109389;-64
2022/08/01 10:20:34;;;;;;;0.30;0.30;;;26.40;80.90;26.10;100499.00;;;;4952949;28;93336;-64
2022/08/01 10:23:03;;;;;;;0.50;0.50;;;26.00;81.30;25.70;100494.00;;;;4952330;28;93929;-64
2022/08/01 10:25:36;;;;;;;0.40;0.32;;;25.70;83.60;25.10;100509.00;;;;4952492;28;93012;-64
2022/08/01 10:28:15;;;;;;;0.30;0.25;;;25.20;88.70;24.50;100521.00;;;;4935330;28;92698;-64
2022/08/01 10:30:42;;;;;;;0.05;0.05;;;24.60;90.60;24.00;100528.00;;;;4952093;28;94744;-64
2022/08/01 10:33:08;;;;;;;0.45;0.45;;;24.10;91.70;23.60;100530.00;;;;4934613;28;94462;-63
2022/08/01 10:35:34;;;;;;;0.20;0.20;;;23.70;93.50;23.20;100528.00;;;;4934545;28;93162;-63
2022/08/01 10:38:01;;;;;;;0.20;0.20;;;23.30;94.60;23.00;100535.00;;;;4951654;28;108343;-62
2022/08/01 10:40:27;;;;;;;0.30;0.30;;;23.00;96.50;22.90;100525.00;;;;4952165;28;121949;-63
2022/08/01 10:42:53;;;;;;;0.20;0.20;;;22.80;98.00;22.90;100541.00;;;;4952373;28;93057;-63
2022/08/01 10:45:20;;;;;;;3.10;0.65;;;22.80;99.00;23.20;100542.00;;;;4934413;28;96372;-63
2022/08/01 10:48:10;;;;;;;0.30;0.20;;;22.90;99.70;23.40;100545.00;;;;4933251;28;110406;-63
2022/08/01 10:50:45;;;;;;;0.10;0.10;;;23.10;99.90;23.80;100539.00;;;;4914168;28;93972;-62
2022/08/01 10:53:17;;;;;;;0.10;0.10;;;23.40;99.50;24.10;100548.00;;;;4932845;28;93844;-62